CST,Max TemperatureF,Mean TemperatureF,Min TemperatureF,Max Dew PointF,MeanDew PointF,Min DewpointF,Max Humidity, Mean Humidity, Min Humidity, Max Sea Level PressureIn, Mean Sea Level PressureIn, Min Sea Level PressureIn, Max VisibilityMiles, Mean VisibilityMiles, Min VisibilityMiles, Max Wind SpeedMPH, Mean Wind SpeedMPH, Max Gust SpeedMPH,PrecipitationIn, CloudCover, Events, WindDirDegrees
2011-11-1,71,55,39,46,39,34,81,62,38,30.13,30.08,29.99,10,10,10,17,9,22,0.00,0,,169
2011-11-2,69,60,51,48,42,37,82,54,38,30.06,30.01,29.93,10,10,7,20,13,25,0.00,3,Thunderstorm,205
2011-11-3,48,46,44,45,43,39,93,87,76,30.13,29.99,29.90,10,9,4,32,21,40,0.69,8,Rain,38
2011-11-4,55,45,35,41,36,34,93,73,47,30.33,30.27,30.20,10,10,1,12,8,18,0.01,0,,54
2011-11-5,59,48,37,45,38,32,87,69,59,30.24,30.18,30.05,10,9,3,17,12,24,0.00,0,,149
2011-11-6,60,52,44,50,45,39,87,74,67,30.05,30.01,29.98,10,10,7,25,15,33,0.00,5,,177
2011-11-7,57,54,51,52,50,46,94,85,77,30.21,30.17,30.11,10,8,7,10,4,,0.00,8,,73
2011-11-8,55,52,48,54,49,46,94,93,87,30.09,29.97,29.91,10,6,2,24,15,30,1.04,8,Rain,53
2011-11-9,59,49,39,59,42,33,100,88,73,30.01,29.77,29.51,10,7,2,32,16,43,0.57,7,Rain,302
2011-11-10,41,38,35,32,31,29,79,74,68,30.07,30.03,30.00,10,10,10,21,13,26,0.00,6,,272
2011-11-11,50,40,31,36,31,28,88,73,50,30.06,29.95,29.78,10,10,10,22,9,26,0.00,1,,201
2011-11-12,62,50,39,42,38,34,87,65,43,29.81,29.75,29.64,10,10,10,25,11,31,0.00,0,,196
2011-11-13,73,64,55,54,46,32,88,61,26,29.54,29.43,29.33,10,10,10,38,22,47,0.00,2,,212
2011-11-14,54,48,42,46,41,34,85,75,57,29.66,29.61,29.57,10,10,5,8,5,,0.03,3,Rain,149
2011-11-15,66,52,38,44,38,34,86,60,34,29.81,29.75,29.68,10,10,10,22,8,29,0.00,0,,222
2011-11-16,44,38,32,32,22,12,77,53,27,30.18,30.06,29.92,10,10,10,24,15,31,0.00,0,,317
2011-11-17,41,34,27,20,18,15,69,53,35,30.26,30.21,30.16,10,10,10,20,11,29,0.00,0,,263
2011-11-18,55,42,29,25,22,19,67,46,29,30.18,30.03,29.86,10,10,10,31,17,38,0.00,0,,189
2011-11-19,57,50,43,50,36,27,77,58,49,29.91,29.82,29.71,10,10,10,24,16,31,0.00,6,,188
2011-11-20,48,44,40,41,35,34,87,73,65,30.28,30.19,29.98,10,10,10,20,12,28,0.00,7,,359
2011-11-21,53,44,35,41,37,32,89,76,58,30.30,30.24,30.17,10,10,10,15,10,,0.00,2,Rain,61
2011-11-22,46,44,42,43,41,39,93,89,82,30.15,29.98,29.84,10,4,1,16,11,24,0.16,8,Rain,50
2011-11-23,52,43,34,40,37,32,100,82,59,30.24,30.18,30.06,10,6,1,9,6,,0.09,1,,266
2011-11-24,53,48,43,47,43,40,93,87,77,30.24,30.17,30.07,10,5,2,20,13,25,0.00,6,,200
2011-11-25,59,50,41,48,43,39,90,78,62,30.04,29.95,29.86,10,7,4,21,16,26,0.00,0,,197
2011-11-26,57,54,48,55,50,46,94,86,75,29.88,29.83,29.76,10,6,2,18,11,25,0.00,7,Rain,207
2011-11-27,44,41,38,42,37,32,93,84,75,30.11,29.97,29.83,10,10,4,21,14,24,0.00,8,Rain,328
2011-11-28,41,38,35,34,32,29,84,79,70,30.16,30.10,30.02,10,10,10,15,10,20,0.00,8,,9
2011-11-29,41,37,33,34,31,28,87,76,66,30.05,29.96,29.90,10,10,10,25,19,37,0.00,4,,5
2011-11-30,44,34,25,26,23,14,86,67,30,30.13,30.08,30.03,10,10,10,15,10,,0.00,0,,271